Time;durP1;ratioP1;P1;durP2;ratioP2;P2;SDS_P1;SDS_P2;PMS_P1;PMS_P2;Temp;Humidity;BMP_temperature;BMP_pressure;BME280_temperature;BME280_humidity;BME280_pressure;Samples;Min_cycle;Max_cycle;Signal;HPM_P1;HPM_P2
2021/06/26 00:01:45;;;;;;;11.00;10.10;;;18.90;78.20;;;;;;5043901;28;20208;-90
2021/06/26 00:04:12;;;;;;;9.85;9.10;;;18.80;78.20;;;;;;5043927;28;20181;-91
2021/06/26 00:06:38;;;;;;;10.25;9.35;;;18.60;79.50;;;;;;5031748;28;20204;-90
2021/06/26 00:09:04;;;;;;;10.00;9.20;;;18.80;79.30;;;;;;5040880;28;20180;-91
2021/06/26 00:11:30;;;;;;;10.32;9.52;;;18.80;78.80;;;;;;5057264;28;20181;-90
2021/06/26 00:13:57;;;;;;;10.50;9.50;;;18.90;78.90;;;;;;5056836;28;20173;-90
2021/06/26 00:16:23;;;;;;;10.57;9.60;;;19.00;78.40;;;;;;5039235;28;20182;-91
2021/06/26 00:18:49;;;;;;;10.40;9.40;;;19.00;78.20;;;;;;5056548;28;20467;-90
2021/06/26 00:21:15;;;;;;;9.43;8.82;;;19.00;77.90;;;;;;5038807;28;20220;-90
2021/06/26 00:23:41;;;;;;;10.45;9.30;;;19.10;77.60;;;;;;5045917;28;20188;-90
2021/06/26 00:26:07;;;;;;;9.48;8.77;;;19.10;77.40;;;;;;5045506;28;20208;-90
2021/06/26 00:28:33;;;;;;;9.75;8.95;;;19.10;77.00;;;;;;5046852;28;20196;-90
2021/06/26 00:30:59;;;;;;;10.38;9.32;;;19.10;76.90;;;;;;5048993;28;20179;-89
2021/06/26 00:33:24;;;;;;;10.40;9.50;;;19.00;77.10;;;;;;5068338;28;20186;-90
2021/06/26 00:35:50;;;;;;;9.65;8.85;;;19.00;77.30;;;;;;5072050;28;20255;-91
2021/06/26 00:38:16;;;;;;;10.38;9.48;;;19.10;77.50;;;;;;5076674;28;20208;-91
2021/06/26 00:40:41;;;;;;;10.00;9.13;;;19.00;77.00;;;;;;5076654;28;20180;-90
2021/06/26 00:43:07;;;;;;;10.85;9.93;;;19.00;77.10;;;;;;5076536;28;20172;-90
2021/06/26 00:45:33;;;;;;;9.55;8.77;;;19.00;76.30;;;;;;5073237;28;20200;-90
2021/06/26 00:47:59;;;;;;;9.13;8.35;;;19.00;77.00;;;;;;5062202;28;20205;-90
2021/06/26 00:50:27;;;;;;;9.15;8.30;;;18.90;76.40;;;;;;5062815;28;20267;-90
2021/06/26 00:52:53;;;;;;;9.75;8.88;;;18.90;76.10;;;;;;5062272;28;20188;-90
2021/06/26 00:55:20;;;;;;;10.05;9.20;;;18.90;76.20;;;;;;5062320;28;20263;-90
2021/06/26 00:57:56;;;;;;;9.10;8.40;;;18.80;76.10;;;;;;5058201;28;20200;-90
2021/06/26 01:00:23;;;;;;;9.38;8.68;;;18.60;76.50;;;;;;5062209;28;20300;-90
2021/06/26 01:02:49;;;;;;;9.95;9.02;;;18.50;77.60;;;;;;5075994;28;20198;-90
2021/06/26 01:05:15;;;;;;;9.52;8.82;;;18.30;77.40;;;;;;5058750;28;20243;-90
2021/06/26 01:07:41;;;;;;;9.57;8.68;;;18.30;78.80;;;;;;5065795;28;20233;-90
2021/06/26 01:10:08;;;;;;;10.77;9.88;;;18.30;78.50;;;;;;5053472;28;20181;-90
2021/06/26 01:12:33;;;;;;;11.05;9.60;;;18.20;78.30;;;;;;5038065;28;20335;-90
2021/06/26 01:14:59;;;;;;;9.95;9.05;;;18.20;79.20;;;;;;5042764;28;20200;-90
2021/06/26 01:17:25;;;;;;;9.82;8.93;;;18.20;78.90;;;;;;5057190;28;20196;-91
2021/06/26 01:19:51;;;;;;;9.02;8.23;;;18.30;78.70;;;;;;5039569;28;20184;-90
2021/06/26 01:22:23;;;;;;;10.52;9.65;;;18.40;78.50;;;;;;5039128;28;20208;-90
2021/06/26 01:24:53;;;;;;;10.68;9.77;;;18.30;77.90;;;;;;5056809;28;20535;-91
2021/06/26 01:27:19;;;;;;;12.18;9.52;;;18.20;78.70;;;;;;5039357;28;20208;-90
2021/06/26 01:29:53;;;;;;;11.23;10.07;;;18.10;78.40;;;;;;5055114;28;20187;-90
2021/06/26 01:32:20;;;;;;;10.77;9.98;;;18.00;79.80;;;;;;5057518;28;20211;-90
2021/06/26 01:34:46;;;;;;;10.45;9.43;;;18.00;80.10;;;;;;5057280;28;20228;-90
2021/06/26 01:37:14;;;;;;;9.45;8.55;;;18.00;78.90;;;;;;5029460;28;20209;-90
2021/06/26 01:39:40;;;;;;;10.45;9.38;;;17.90;78.90;;;;;;5064043;28;20185;-90
2021/06/26 01:42:07;;;;;;;13.63;10.00;;;17.90;78.60;;;;;;5061689;28;20210;-90
2021/06/26 01:44:33;;;;;;;10.13;9.23;;;17.90;79.20;;;;;;5055452;28;20235;-90
2021/06/26 01:46:59;;;;;;;10.15;9.10;;;17.80;79.60;;;;;;5035017;28;20216;-90
2021/06/26 01:49:25;;;;;;;10.10;9.20;;;17.70;80.00;;;;;;5034992;28;20175;-90
2021/06/26 01:51:51;;;;;;;10.45;9.65;;;17.70;80.50;;;;;;5036366;28;20191;-91
2021/06/26 01:54:17;;;;;;;9.05;8.35;;;17.80;80.20;;;;;;5036961;28;20235;-90
2021/06/26 01:56:43;;;;;;;10.20;9.05;;;17.90;79.80;;;;;;5055870;28;20904;-90
2021/06/26 01:59:09;;;;;;;10.10;9.15;;;18.00;79.40;;;;;;5056317;28;20187;-90
2021/06/26 02:01:35;;;;;;;9.77;9.00;;;17.80;78.10;;;;;;5055967;28;20215;-90
2021/06/26 02:04:01;;;;;;;10.38;9.35;;;17.80;79.50;;;;;;5059703;28;20251;-90
2021/06/26 02:06:27;;;;;;;9.80;8.85;;;17.80;78.80;;;;;;5060312;28;20207;-90
2021/06/26 02:08:52;;;;;;;9.38;8.50;;;17.70;78.50;;;;;;5042117;28;20263;-90
2021/06/26 02:11:18;;;;;;;11.90;9.18;;;17.70;79.20;;;;;;5043393;28;20216;-90
2021/06/26 02:13:44;;;;;;;10.23;9.23;;;17.80;78.40;;;;;;5043347;28;20187;-91
2021/06/26 02:16:10;;;;;;;9.75;8.95;;;17.80;79.00;;;;;;5061284;28;20241;-91
2021/06/26 02:18:35;;;;;;;8.77;8.00;;;17.80;78.50;;;;;;5043849;28;20266;-91
2021/06/26 02:21:02;;;;;;;9.02;8.18;;;17.90;80.30;;;;;;5043306;28;20215;-90
2021/06/26 02:23:28;;;;;;;9.02;8.13;;;17.80;77.40;;;;;;5061172;28;20186;-90
2021/06/26 02:25:55;;;;;;;9.27;8.35;;;17.70;77.90;;;;;;5043390;28;20187;-90
2021/06/26 02:28:21;;;;;;;8.27;7.68;;;17.50;78.90;;;;;;5027160;28;20708;-90
2021/06/26 02:30:47;;;;;;;9.32;8.43;;;17.50;79.70;;;;;;5061418;28;20189;-90
2021/06/26 02:33:13;;;;;;;8.77;8.02;;;17.60;80.10;;;;;;5061418;28;20261;-90
2021/06/26 02:35:38;;;;;;;8.20;7.60;;;17.70;79.50;;;;;;5061295;28;20661;-90
2021/06/26 02:38:04;;;;;;;9.10;8.35;;;17.70;79.00;;;;;;5043191;28;20210;-90
2021/06/26 02:40:33;;;;;;;9.23;8.43;;;17.80;79.30;;;;;;5060745;28;20185;-91
2021/06/26 02:42:59;;;;;;;10.15;9.23;;;17.80;78.80;;;;;;5061462;28;20215;-90
2021/06/26 02:45:25;;;;;;;8.77;8.07;;;17.70;79.20;;;;;;5044021;28;20194;-91
2021/06/26 02:47:51;;;;;;;9.13;7.85;;;17.70;80.60;;;;;;5061527;28;20262;-91
2021/06/26 02:50:17;;;;;;;8.00;7.40;;;17.70;79.30;;;;;;5062468;28;20189;-91
2021/06/26 02:52:43;;;;;;;9.13;7.90;;;17.70;79.00;;;;;;5044072;23;20339;-87
2021/06/26 02:55:12;;;;;;;8.43;7.72;;;17.70;79.00;;;;;;5017032;28;20184;-87
2021/06/26 02:57:38;;;;;;;9.60;8.65;;;17.70;78.50;;;;;;5000156;28;20204;-87
2021/06/26 03:00:06;;;;;;;9.80;8.70;;;17.80;79.40;;;;;;5017772;28;20196;-86
2021/06/26 03:02:32;;;;;;;8.65;8.05;;;17.70;79.00;;;;;;5001158;28;20224;-86
2021/06/26 03:04:57;;;;;;;8.98;8.20;;;17.80;79.40;;;;;;5000902;28;20185;-87
2021/06/26 03:07:23;;;;;;;9.38;7.80;;;17.90;78.60;;;;;;5022208;28;20202;-86
2021/06/26 03:09:49;;;;;;;8.10;7.50;;;17.90;78.60;;;;;;5034032;28;20257;-87
2021/06/26 03:12:15;;;;;;;9.57;7.70;;;17.90;78.90;;;;;;5016979;28;20193;-87
2021/06/26 03:14:40;;;;;;;8.20;7.50;;;17.90;77.90;;;;;;5018291;28;20188;-86
2021/06/26 03:17:06;;;;;;;8.98;8.25;;;17.90;77.40;;;;;;5033143;28;20220;-86
2021/06/26 03:19:32;;;;;;;8.77;8.05;;;17.70;77.50;;;;;;5020378;28;20283;-88
2021/06/26 03:21:58;;;;;;;9.18;8.30;;;17.60;78.10;;;;;;5018062;28;20348;-87
2021/06/26 03:24:23;;;;;;;10.02;8.32;;;17.60;78.40;;;;;;5002047;28;20187;-86
2021/06/26 03:26:49;;;;;;;8.63;7.65;;;17.50;79.40;;;;;;5017722;28;20266;-86
2021/06/26 03:29:15;;;;;;;8.40;7.40;;;17.50;78.80;;;;;;5001183;28;20196;-87
2021/06/26 03:31:41;;;;;;;8.75;8.02;;;17.50;79.30;;;;;;4982927;28;20535;-86
2021/06/26 03:34:06;;;;;;;8.90;7.72;;;17.50;79.30;;;;;;4998976;28;20267;-86
2021/06/26 03:36:32;;;;;;;9.07;8.02;;;17.40;79.10;;;;;;5017178;28;20209;-87
2021/06/26 03:38:58;;;;;;;8.02;7.40;;;17.50;79.70;;;;;;5016018;28;20730;-87
2021/06/26 03:41:26;;;;;;;8.77;7.80;;;17.60;79.50;;;;;;5009991;28;20215;-87
2021/06/26 03:43:58;;;;;;;8.30;7.60;;;17.60;79.70;;;;;;4999682;28;20186;-87
2021/06/26 03:46:24;;;;;;;8.70;7.90;;;17.70;79.70;;;;;;4982937;28;20192;-87
2021/06/26 03:48:52;;;;;;;9.50;7.90;;;17.70;79.50;;;;;;5016853;28;20182;-87
2021/06/26 03:51:18;;;;;;;11.50;8.13;;;17.80;79.00;;;;;;4994996;28;20207;-87
2021/06/26 03:53:46;;;;;;;8.70;7.85;;;17.50;79.10;;;;;;5012404;28;20199;-86
2021/06/26 03:56:12;;;;;;;9.55;7.88;;;17.60;80.00;;;;;;5011974;28;20264;-87
2021/06/26 04:02:09;;;;;;;8.27;7.47;;;17.80;79.60;;;;;;5005800;28;20228;-86
2021/06/26 04:04:35;;;;;;;9.05;8.15;;;17.80;79.20;;;;;;5011799;28;20272;-87
2021/06/26 04:07:01;;;;;;;8.07;7.47;;;17.80;78.40;;;;;;5012118;28;20224;-87
2021/06/26 04:09:30;;;;;;;8.85;7.75;;;17.90;79.10;;;;;;5012115;28;20207;-87
2021/06/26 04:11:56;;;;;;;8.60;7.80;;;17.80;78.40;;;;;;5011734;28;20188;-87
2021/06/26 04:14:22;;;;;;;8.57;7.68;;;17.60;78.50;;;;;;5014607;28;20188;-87
2021/06/26 04:16:48;;;;;;;8.40;6.97;;;17.30;80.50;;;;;;5018950;28;20349;-87
2021/06/26 04:19:14;;;;;;;8.33;7.57;;;17.10;82.40;;;;;;5018698;28;20197;-87
2021/06/26 04:21:41;;;;;;;8.63;7.83;;;17.10;81.60;;;;;;5014836;28;20212;-88
2021/06/26 04:24:06;;;;;;;9.20;8.30;;;17.10;81.70;;;;;;5011794;28;20225;-88
2021/06/26 04:26:32;;;;;;;8.70;8.00;;;17.10;82.00;;;;;;5011104;28;20288;-88
2021/06/26 04:28:58;;;;;;;8.93;8.17;;;17.10;82.00;;;;;;5010895;28;20241;-88
2021/06/26 04:31:23;;;;;;;8.97;8.07;;;17.10;81.90;;;;;;5010855;28;20193;-88
2021/06/26 04:33:49;;;;;;;8.50;7.87;;;17.10;82.30;;;;;;5010292;28;20213;-88
2021/06/26 04:36:15;;;;;;;8.40;7.70;;;17.10;82.50;;;;;;5012700;28;20730;-88
2021/06/26 04:38:42;;;;;;;8.60;7.80;;;17.30;82.40;;;;;;5009706;28;20300;-88
2021/06/26 04:41:08;;;;;;;8.52;7.72;;;17.30;81.90;;;;;;5011106;28;20430;-88
2021/06/26 04:43:34;;;;;;;7.68;6.82;;;17.40;81.20;;;;;;5011284;28;20203;-88
2021/06/26 04:46:00;;;;;;;8.70;7.55;;;17.40;81.50;;;;;;5012550;28;20614;-88
2021/06/26 04:48:29;;;;;;;8.45;7.75;;;17.50;81.30;;;;;;5012543;28;20223;-88
2021/06/26 04:50:55;;;;;;;8.07;7.40;;;17.60;81.40;;;;;;4994818;28;20177;-88
2021/06/26 04:53:21;;;;;;;7.97;7.28;;;17.70;81.10;;;;;;5011586;28;20217;-88
2021/06/26 04:55:52;;;;;;;8.45;7.57;;;17.70;80.80;;;;;;5011770;28;20665;-88
2021/06/26 04:58:19;;;;;;;9.20;8.32;;;17.80;80.50;;;;;;5007941;28;20201;-88
2021/06/26 05:00:45;;;;;;;8.70;8.10;;;17.80;80.90;;;;;;4989312;28;20189;-88
2021/06/26 05:03:11;;;;;;;9.45;8.68;;;17.90;80.90;;;;;;5001027;28;20926;-88
2021/06/26 05:05:36;;;;;;;10.35;8.98;;;17.90;80.60;;;;;;4988030;28;20188;-88
2021/06/26 05:08:02;;;;;;;9.75;8.98;;;17.90;80.90;;;;;;4982476;28;20197;-88
2021/06/26 05:10:28;;;;;;;10.10;9.30;;;17.70;82.10;;;;;;4999319;28;20220;-88
2021/06/26 05:12:53;;;;;;;10.48;9.40;;;17.50;83.30;;;;;;5008337;28;20691;-88
2021/06/26 05:15:19;;;;;;;11.00;9.90;;;17.50;83.30;;;;;;5004092;28;20191;-88
2021/06/26 05:17:44;;;;;;;11.13;10.07;;;17.50;83.60;;;;;;5008519;28;20799;-87
2021/06/26 05:20:14;;;;;;;9.88;8.93;;;17.50;84.10;;;;;;5008659;28;20191;-88
2021/06/26 05:22:40;;;;;;;12.80;10.25;;;17.50;84.30;;;;;;5008591;28;20215;-88
2021/06/26 05:25:06;;;;;;;10.80;9.77;;;17.80;84.20;;;;;;4991815;28;20192;-87
2021/06/26 05:27:32;;;;;;;13.50;10.75;;;17.80;83.90;;;;;;5008640;28;20236;-87
2021/06/26 05:29:57;;;;;;;10.98;9.98;;;17.80;83.20;;;;;;5008487;28;20673;-87
2021/06/26 05:32:23;;;;;;;10.23;9.23;;;17.80;83.10;;;;;;4995332;28;20708;-87
2021/06/26 05:34:49;;;;;;;9.90;9.10;;;17.80;83.60;;;;;;5008708;28;20189;-87
2021/06/26 05:37:14;;;;;;;9.80;8.90;;;17.90;83.30;;;;;;4997167;28;20261;-88
2021/06/26 05:39:40;;;;;;;10.27;9.38;;;17.90;83.80;;;;;;5000170;28;20765;-87
2021/06/26 05:42:06;;;;;;;10.90;9.52;;;18.10;83.80;;;;;;5021445;28;20208;-87
2021/06/26 05:44:31;;;;;;;9.95;8.60;;;18.10;82.70;;;;;;5020376;28;20255;-87
2021/06/26 05:46:57;;;;;;;9.48;8.68;;;18.00;81.90;;;;;;5020785;28;20220;-88
2021/06/26 05:49:23;;;;;;;10.32;9.32;;;18.10;82.90;;;;;;5021288;28;20177;-87
2021/06/26 05:51:49;;;;;;;9.32;8.52;;;18.10;83.10;;;;;;5020145;28;20274;-88
2021/06/26 05:54:14;;;;;;;9.15;8.35;;;18.10;83.30;;;;;;5022039;28;20192;-89
2021/06/26 05:59:09;;;;;;;9.60;8.70;;;18.30;84.50;;;;;;5040918;28;20257;-90
2021/06/26 06:01:34;;;;;;;9.60;8.90;;;18.40;84.30;;;;;;5017606;28;20203;-89
2021/06/26 06:04:00;;;;;;;9.48;8.57;;;18.40;83.10;;;;;;5036691;28;20197;-89
2021/06/26 06:06:26;;;;;;;9.52;8.65;;;18.40;82.60;;;;;;5011259;28;20197;-90
2021/06/26 06:08:51;;;;;;;8.18;7.57;;;18.40;83.70;;;;;;5023087;28;20240;-90
2021/06/26 06:11:17;;;;;;;8.45;7.85;;;18.60;83.20;;;;;;5031464;28;20239;-89
2021/06/26 06:13:43;;;;;;;9.00;8.20;;;18.80;82.10;;;;;;5032836;28;20969;-91
2021/06/26 06:16:08;;;;;;;8.98;8.23;;;18.90;81.80;;;;;;5031543;28;20213;-88
2021/06/26 06:21:04;;;;;;;9.05;8.15;;;19.10;79.80;;;;;;5040959;28;20314;-90
2021/06/26 06:23:32;;;;;;;9.30;8.35;;;19.10;80.40;;;;;;5032050;28;20182;-91
2021/06/26 06:26:01;;;;;;;9.85;8.85;;;19.30;78.60;;;;;;5023168;28;20181;-92
2021/06/26 06:28:27;;;;;;;10.77;9.20;;;19.20;78.40;;;;;;5036087;28;20212;-89
2021/06/26 06:30:53;;;;;;;9.52;8.63;;;19.20;78.60;;;;;;5042141;28;20180;-90
2021/06/26 06:33:21;;;;;;;8.52;7.55;;;19.30;76.90;;;;;;5041079;28;20185;-89
2021/06/26 06:35:47;;;;;;;8.05;7.35;;;19.30;76.10;;;;;;5042067;28;20204;-90
2021/06/26 06:38:16;;;;;;;8.57;7.90;;;19.30;76.00;;;;;;5024177;28;20205;-91
2021/06/26 06:40:50;;;;;;;8.35;7.55;;;19.40;75.80;;;;;;5043557;28;20177;-92
2021/06/26 06:43:16;;;;;;;9.00;8.20;;;19.40;76.20;;;;;;5026754;28;20184;-92
2021/06/26 06:45:45;;;;;;;9.98;8.80;;;19.50;76.80;;;;;;5028284;28;20551;-93
2021/06/26 06:48:13;;;;;;;9.02;8.18;;;19.40;76.90;;;;;;5043859;28;20232;-92
2021/06/26 06:50:39;;;;;;;8.15;7.55;;;19.40;77.20;;;;;;5042874;28;20176;-92
2021/06/26 06:53:05;;;;;;;8.60;7.78;;;19.60;76.90;;;;;;5026250;28;20252;-89
2021/06/26 06:55:31;;;;;;;8.70;8.07;;;19.60;77.00;;;;;;5026538;28;20208;-93
2021/06/26 06:57:57;;;;;;;10.80;8.38;;;19.70;77.10;;;;;;5022327;28;20205;-91
2021/06/26 07:00:28;;;;;;;10.60;8.25;;;19.70;75.20;;;;;;5045811;28;20190;-92
2021/06/26 07:03:00;;;;;;;8.82;8.05;;;19.60;75.80;;;;;;5034623;28;20202;-94
2021/06/26 07:05:34;;;;;;;8.63;7.70;;;19.60;76.30;;;;;;5032119;28;20188;-94
2021/06/26 07:08:00;;;;;;;9.23;8.48;;;19.50;76.90;;;;;;5032409;28;20200;-93
2021/06/26 07:10:29;;;;;;;9.18;8.07;;;19.60;76.50;;;;;;5046062;28;20231;-91
2021/06/26 07:12:55;;;;;;;9.32;8.20;;;19.60;75.80;;;;;;5027782;28;20181;-93
2021/06/26 07:15:21;;;;;;;8.80;7.75;;;19.50;75.50;;;;;;5047946;28;20180;-92
2021/06/26 07:17:47;;;;;;;9.80;8.50;;;19.50;76.80;;;;;;5046915;28;20220;-92
2021/06/26 07:20:13;;;;;;;8.95;8.10;;;19.60;75.70;;;;;;5030438;28;20213;-93
2021/06/26 07:22:39;;;;;;;8.48;7.85;;;19.60;75.40;;;;;;5033109;28;20204;-93
2021/06/26 07:25:05;;;;;;;8.93;8.07;;;19.70;75.60;;;;;;5030747;28;20859;-92
2021/06/26 07:27:31;;;;;;;8.88;8.13;;;19.80;73.90;;;;;;5030013;28;20202;-92
2021/06/26 07:29:57;;;;;;;8.55;7.78;;;19.80;74.00;;;;;;5047803;28;20275;-92
2021/06/26 07:32:23;;;;;;;9.68;8.70;;;19.80;73.60;;;;;;5030006;28;20181;-91
2021/06/26 07:34:49;;;;;;;9.52;8.60;;;19.80;73.50;;;;;;5048117;28;20192;-92
2021/06/26 07:37:14;;;;;;;9.80;8.93;;;19.80;74.80;;;;;;5045554;28;20232;-91
2021/06/26 07:39:40;;;;;;;8.95;8.05;;;19.80;75.50;;;;;;5045587;28;20246;-90
2021/06/26 07:42:07;;;;;;;8.90;8.20;;;19.70;75.30;;;;;;5044848;28;20231;-91
2021/06/26 07:44:33;;;;;;;8.50;7.70;;;19.70;75.80;;;;;;5044055;28;20181;-92
2021/06/26 07:46:59;;;;;;;9.23;8.52;;;19.70;76.40;;;;;;5027597;28;20223;-91
2021/06/26 07:49:25;;;;;;;9.80;8.85;;;19.80;76.00;;;;;;5008429;28;20223;-92
2021/06/26 07:52:23;;;;;;;9.93;9.00;;;19.90;75.50;;;;;;5044991;28;20261;-93
2021/06/26 07:55:14;;;;;;;9.57;8.75;;;20.00;75.90;;;;;;5029098;28;20293;-92
2021/06/26 07:57:43;;;;;;;9.60;8.90;;;20.00;75.80;;;;;;5044671;28;20379;-91
2021/06/26 08:00:09;;;;;;;9.85;8.95;;;20.10;75.80;;;;;;5028713;28;20188;-92
2021/06/26 08:09:13;;;;;;;8.95;8.15;;;20.00;78.50;;;;;;4943703;29;20188;-91
2021/06/26 08:11:39;;;;;;;9.35;8.52;;;20.10;78.30;;;;;;4946484;29;20203;-89
2021/06/26 08:14:15;;;;;;;9.20;8.40;;;20.30;78.60;;;;;;5005432;28;20405;-89
2021/06/26 08:36:32;;;;;;;9.70;8.93;;;21.60;69.30;;;;;;4964267;29;20190;-90
2021/06/26 08:43:01;;;;;;;10.25;8.23;;;21.90;64.70;;;;;;4907043;29;20209;-90
2021/06/26 08:59:38;;;;;;;10.48;8.43;;;22.60;60.30;;;;;;4528367;23;20237;-91
2021/06/26 09:02:29;;;;;;;10.85;9.18;;;22.70;61.30;;;;;;4929381;29;20231;-90
2021/06/26 09:09:13;;;;;;;9.98;9.00;;;22.90;60.60;;;;;;5010450;28;20217;-89
2021/06/26 09:11:39;;;;;;;11.27;10.13;;;22.70;62.10;;;;;;4931294;29;20211;-90
2021/06/26 09:15:05;;;;;;;9.68;8.77;;;23.00;61.90;;;;;;4989178;28;20186;-89
2021/06/26 09:17:48;;;;;;;9.18;8.27;;;23.30;62.00;;;;;;4982049;23;20236;-91
2021/06/26 09:24:29;;;;;;;9.68;8.85;;;23.70;57.50;;;;;;4993477;28;20245;-92
2021/06/26 09:27:21;;;;;;;10.40;9.35;;;23.90;58.10;;;;;;4993459;28;20213;-93
2021/06/26 09:29:56;;;;;;;9.25;8.55;;;23.90;59.60;;;;;;5008724;28;20174;-93
2021/06/26 09:41:37;;;;;;;9.90;9.20;;;24.70;56.30;;;;;;5047412;28;20558;-92
2021/06/26 09:44:09;;;;;;;9.63;8.80;;;24.40;56.10;;;;;;5029872;28;20327;-92
2021/06/26 09:46:50;;;;;;;10.68;9.50;;;24.50;58.10;;;;;;5042868;28;20190;-92
2021/06/26 09:49:29;;;;;;;10.13;9.30;;;24.80;56.60;;;;;;4987085;28;20173;-91
2021/06/26 09:52:02;;;;;;;9.02;8.23;;;24.80;55.20;;;;;;5004459;28;20184;-91
2021/06/26 09:54:29;;;;;;;9.23;8.52;;;24.60;56.50;;;;;;5007205;28;20247;-91
2021/06/26 09:56:56;;;;;;;10.05;9.35;;;24.70;56.50;;;;;;5007932;28;20666;-91
2021/06/26 09:59:33;;;;;;;10.35;9.45;;;24.80;55.60;;;;;;5008285;28;20197;-90
2021/06/26 10:02:03;;;;;;;9.63;8.82;;;24.70;55.60;;;;;;5006881;28;20316;-90
2021/06/26 10:04:36;;;;;;;9.20;8.40;;;24.90;56.70;;;;;;5007508;28;20178;-89
2021/06/26 10:07:55;;;;;;;;;;;;;;;;;;;;;
2021/06/26 10:10:50;;;;;;;9.55;8.85;;;25.30;54.50;;;;;;5005508;28;20217;-91
2021/06/26 10:14:01;;;;;;;10.70;9.80;;;25.40;52.80;;;;;;4965363;28;20189;-91
2021/06/26 10:16:32;;;;;;;10.00;9.10;;;25.30;53.80;;;;;;5007231;28;20182;-91
2021/06/26 10:19:08;;;;;;;9.30;8.40;;;25.50;53.30;;;;;;5025928;28;20247;-90
2021/06/26 10:21:49;;;;;;;10.05;9.10;;;25.70;53.80;;;;;;5005235;28;20239;-90
2021/06/26 10:24:21;;;;;;;10.23;9.25;;;25.90;52.30;;;;;;5020408;28;20234;-91
2021/06/26 10:26:48;;;;;;;9.82;8.90;;;26.00;52.40;;;;;;5025183;28;20205;-91
2021/06/26 10:29:14;;;;;;;9.93;8.98;;;26.00;52.90;;;;;;5005725;28;20196;-91
2021/06/26 10:31:43;;;;;;;10.13;9.13;;;25.90;54.40;;;;;;5019837;28;20184;-91
2021/06/26 10:34:21;;;;;;;10.20;9.30;;;25.50;53.90;;;;;;5006471;28;20193;-92
2021/06/26 10:36:53;;;;;;;10.10;9.20;;;25.60;52.70;;;;;;5005907;28;20205;-91
2021/06/26 10:39:33;;;;;;;9.73;8.93;;;25.80;52.60;;;;;;5003780;28;20201;-92
2021/06/26 10:42:09;;;;;;;10.70;8.25;;;26.00;54.70;;;;;;5000939;28;20210;-88
2021/06/26 10:45:05;;;;;;;9.50;8.80;;;26.50;51.60;;;;;;5002620;28;20618;-90
2021/06/26 10:48:11;;;;;;;;;;;;;;;;;;;;;
2021/06/26 11:03:44;;;;;;;8.50;7.90;;;26.00;51.50;;;;;;5038042;28;20197;-89
2021/06/26 11:06:31;;;;;;;9.00;8.35;;;26.30;51.10;;;;;;5021344;28;20188;-89
2021/06/26 11:12:11;;;;;;;9.75;8.68;;;26.70;48.80;;;;;;5011123;28;20189;-90
2021/06/26 11:15:20;;;;;;;10.43;8.90;;;26.80;49.60;;;;;;5022315;28;20169;-89
2021/06/26 11:17:54;;;;;;;9.65;8.52;;;26.90;48.30;;;;;;4984303;28;20213;-89
2021/06/26 11:20:38;;;;;;;;;;;;;;;;;;;;;
2021/06/26 11:23:14;;;;;;;8.98;8.25;;;27.00;50.00;;;;;;5003674;28;20277;-88
2021/06/26 11:25:51;;;;;;;8.68;8.05;;;27.20;50.00;;;;;;5009343;28;20227;-90
2021/06/26 11:28:20;;;;;;;9.20;8.60;;;27.30;49.30;;;;;;5006406;28;20205;-89
2021/06/26 11:31:09;;;;;;;9.00;8.20;;;27.60;48.40;;;;;;5018729;28;20620;-89
2021/06/26 11:33:40;;;;;;;9.00;8.40;;;27.80;49.30;;;;;;5021492;28;20186;-89
2021/06/26 11:36:39;;;;;;;9.30;8.60;;;27.50;47.00;;;;;;5020658;28;20174;-89
2021/06/26 11:39:29;;;;;;;8.55;7.85;;;27.30;48.60;;;;;;4991954;28;20201;-90
2021/06/26 11:42:02;;;;;;;8.63;8.02;;;27.20;50.80;;;;;;5006040;28;20218;-89
2021/06/26 11:44:47;;;;;;;8.45;7.63;;;27.50;48.90;;;;;;5015387;28;20181;-88
2021/06/26 11:47:26;;;;;;;9.02;8.35;;;27.80;48.50;;;;;;5019550;28;20288;-91
2021/06/26 11:49:55;;;;;;;8.88;8.07;;;27.50;47.60;;;;;;4999856;28;20197;-90
2021/06/26 11:52:40;;;;;;;8.07;7.47;;;27.30;48.20;;;;;;5017620;28;20217;-89
2021/06/26 11:55:12;;;;;;;8.98;8.10;;;27.30;45.90;;;;;;5020211;28;20185;-89
2021/06/26 11:57:40;;;;;;;7.97;7.32;;;27.20;48.10;;;;;;4999436;28;20270;-89
2021/06/26 12:00:07;;;;;;;8.18;7.57;;;26.80;48.50;;;;;;4981146;28;20198;-89
2021/06/26 12:02:38;;;;;;;8.15;7.43;;;26.60;48.60;;;;;;5004687;28;20209;-89
2021/06/26 12:05:20;;;;;;;8.55;7.95;;;26.70;48.70;;;;;;4991075;28;20182;-89
2021/06/26 12:07:46;;;;;;;8.60;7.90;;;26.80;48.30;;;;;;5014714;28;20694;-89
2021/06/26 12:10:12;;;;;;;8.25;7.45;;;27.10;47.20;;;;;;5020986;28;20213;-89
2021/06/26 12:12:40;;;;;;;9.10;8.40;;;27.50;46.80;;;;;;5015088;28;20177;-88
2021/06/26 12:15:08;;;;;;;8.93;7.97;;;27.80;47.90;;;;;;5015872;28;20553;-89
2021/06/26 12:17:35;;;;;;;7.93;7.35;;;27.80;48.90;;;;;;5012112;28;20296;-89
2021/06/26 12:20:05;;;;;;;7.93;7.40;;;27.70;49.20;;;;;;4993625;28;20217;-89
2021/06/26 12:22:31;;;;;;;8.10;7.45;;;28.10;47.10;;;;;;4973858;28;20662;-89
2021/06/26 12:25:10;;;;;;;7.40;6.90;;;28.40;45.70;;;;;;5004512;28;20193;-89
2021/06/26 12:27:37;;;;;;;7.70;7.05;;;28.70;45.10;;;;;;4992849;28;20889;-89
2021/06/26 12:30:14;;;;;;;7.65;7.15;;;28.80;44.00;;;;;;4994019;28;20325;-90
2021/06/26 12:32:41;;;;;;;7.63;6.93;;;29.00;42.30;;;;;;4977025;28;20224;-89
2021/06/26 12:35:09;;;;;;;7.50;7.00;;;29.00;42.70;;;;;;4996937;28;20201;-90
2021/06/26 12:37:40;;;;;;;9.02;8.23;;;29.10;43.30;;;;;;5013433;28;20292;-89
2021/06/26 12:40:15;;;;;;;9.57;8.65;;;29.00;43.30;;;;;;5010054;28;20331;-87
2021/06/26 12:43:09;;;;;;;8.05;7.28;;;28.50;44.10;;;;;;5013460;28;20185;-90
2021/06/26 12:45:47;;;;;;;8.70;7.97;;;28.30;44.80;;;;;;5015433;28;20678;-89
2021/06/26 12:48:18;;;;;;;7.43;6.90;;;28.30;45.30;;;;;;5015337;28;20205;-92
2021/06/26 12:51:02;;;;;;;7.75;6.97;;;28.10;46.10;;;;;;4998615;28;20341;-90
2021/06/26 12:53:37;;;;;;;8.07;7.47;;;28.10;46.40;;;;;;5003569;28;20178;-89
2021/06/26 12:56:12;;;;;;;7.78;7.03;;;28.00;47.10;;;;;;5022245;28;20184;-90
2021/06/26 12:58:49;;;;;;;9.68;8.88;;;28.00;47.80;;;;;;5021933;28;20200;-90
2021/06/26 13:01:15;;;;;;;8.07;7.35;;;28.10;49.40;;;;;;5004731;28;20598;-89
2021/06/26 13:03:51;;;;;;;8.10;7.45;;;28.00;49.90;;;;;;5015577;28;20245;-92
2021/06/26 13:06:17;;;;;;;7.80;7.20;;;27.90;48.80;;;;;;5022132;28;20170;-89
2021/06/26 13:09:14;;;;;;;8.25;7.65;;;27.90;48.10;;;;;;5021910;28;20184;-90
2021/06/26 13:11:54;;;;;;;8.32;7.63;;;27.90;47.20;;;;;;4998578;28;20190;-90
2021/06/26 13:14:27;;;;;;;8.70;8.10;;;28.10;47.60;;;;;;4985094;28;20206;-93
2021/06/26 13:16:59;;;;;;;8.48;7.47;;;28.60;47.10;;;;;;4994260;28;20229;-90
2021/06/26 13:19:28;;;;;;;8.23;7.53;;;29.00;45.90;;;;;;4985306;28;20206;-89
2021/06/26 13:21:56;;;;;;;7.57;6.97;;;29.30;46.30;;;;;;5022649;28;20205;-90
2021/06/26 13:24:25;;;;;;;8.88;8.02;;;29.50;44.90;;;;;;5023413;28;20243;-91
2021/06/26 13:26:51;;;;;;;7.57;7.03;;;29.40;45.10;;;;;;5009654;28;20193;-89
2021/06/26 13:29:17;;;;;;;7.13;6.53;;;29.50;45.10;;;;;;4991807;28;20185;-92
2021/06/26 13:31:44;;;;;;;7.22;6.72;;;29.50;44.40;;;;;;4992585;28;20202;-93
2021/06/26 13:34:09;;;;;;;7.65;7.07;;;29.50;44.00;;;;;;4975491;28;20210;-94
2021/06/26 13:36:35;;;;;;;6.95;6.45;;;29.40;42.70;;;;;;4993196;28;20214;-92
2021/06/26 13:39:01;;;;;;;6.82;6.25;;;29.20;45.20;;;;;;5004843;28;20181;-92
2021/06/26 13:41:28;;;;;;;6.75;6.28;;;28.70;45.10;;;;;;4995563;28;20210;-93
2021/06/26 13:43:53;;;;;;;7.93;6.80;;;29.20;44.60;;;;;;4993548;28;20174;-90
2021/06/26 13:46:19;;;;;;;7.43;6.82;;;29.60;41.80;;;;;;5017464;28;20794;-91
2021/06/26 13:49:41;;;;;;;7.18;6.65;;;29.40;43.30;;;;;;5002756;28;20188;-91
2021/06/26 13:56:05;;;;;;;7.95;7.35;;;30.10;40.90;;;;;;5000437;28;20236;-92
2021/06/26 13:58:31;;;;;;;8.35;7.72;;;30.40;41.70;;;;;;4976402;28;20217;-91
2021/06/26 14:00:57;;;;;;;8.05;7.25;;;30.40;39.20;;;;;;4997319;28;20197;-91
2021/06/26 14:03:23;;;;;;;10.35;7.53;;;30.50;39.10;;;;;;5015820;28;20206;-91
2021/06/26 14:05:48;;;;;;;7.38;6.78;;;30.90;37.80;;;;;;5016235;28;20178;-91
2021/06/26 14:08:14;;;;;;;7.85;7.35;;;31.70;37.90;;;;;;4986458;28;20219;-91
2021/06/26 14:10:41;;;;;;;7.47;6.88;;;31.80;35.70;;;;;;5013726;28;20674;-91
2021/06/26 14:13:08;;;;;;;7.30;6.90;;;31.70;36.70;;;;;;4998058;28;20659;-91
2021/06/26 14:15:34;;;;;;;7.80;7.30;;;31.80;37.50;;;;;;4997309;28;20182;-90
2021/06/26 14:18:00;;;;;;;7.18;6.78;;;31.20;37.80;;;;;;4992716;28;20205;-91
2021/06/26 14:20:26;;;;;;;7.93;7.28;;;31.10;39.20;;;;;;4998103;28;20186;-91
2021/06/26 14:22:52;;;;;;;7.55;7.05;;;30.90;37.70;;;;;;4986773;28;20288;-93
2021/06/26 14:25:18;;;;;;;7.32;6.90;;;30.90;38.70;;;;;;5000220;28;20703;-91
2021/06/26 14:27:45;;;;;;;7.63;7.13;;;30.60;39.20;;;;;;5009777;28;20287;-91
2021/06/26 14:30:12;;;;;;;7.43;6.93;;;31.10;38.10;;;;;;4989690;28;20201;-92
2021/06/26 14:32:38;;;;;;;7.18;6.63;;;31.50;36.80;;;;;;5020747;28;20170;-92